Terminal Aerodrome Forecast
Issued by NWS

Home | Current Version | Previous Version | Text Only | Print | Product List | Glossary On
Versions: 1 2 3 4 5 6 7 8 9 10 11 12 13
410
FTUS44 KLIX 212320
TAFGPT
TAF
KGPT 212320Z 2200/2224 33003KT P6SM BKN150
     FM221200 VRB03KT P6SM BKN040 PROB30 2212/2216 4SM TSRA OVC040CB
     FM222000 18008KT P6SM SCT050
      TEMPO 2220/2224 VRB18KT 2SM +TSRA BKN040CB BKN100=

USA.gov is the U.S. government's official web portal to all federal, state and local government web resources and services.